sensor_id;sensor_type;location;lat;lon;timestamp;P1;durP1;ratioP1;P2;durP2;ratioP2
65613;SDS011;52283;49.292;10.572;2022-10-16T00:00:28;1.15;;;0.75;;
65613;SDS011;52283;49.292;10.572;2022-10-16T00:02:54;2.88;;;0.70;;
65613;SDS011;52283;49.292;10.572;2022-10-16T00:05:22;1.42;;;0.60;;
65613;SDS011;52283;49.292;10.572;2022-10-16T00:07:49;1.67;;;0.60;;
65613;SDS011;52283;49.292;10.572;2022-10-16T00:10:15;0.52;;;0.50;;
65613;SDS011;52283;49.292;10.572;2022-10-16T00:12:42;0.90;;;0.50;;
65613;SDS011;52283;49.292;10.572;2022-10-16T00:15:09;0.80;;;0.65;;
65613;SDS011;52283;49.292;10.572;2022-10-16T00:17:35;0.55;;;0.55;;
65613;SDS011;52283;49.292;10.572;2022-10-16T00:20:02;0.75;;;0.60;;
65613;SDS011;52283;49.292;10.572;2022-10-16T00:22:30;1.95;;;0.70;;
65613;SDS011;52283;49.292;10.572;2022-10-16T00:24:57;3.75;;;0.60;;
65613;SDS011;52283;49.292;10.572;2022-10-16T00:27:23;0.93;;;0.68;;
65613;SDS011;52283;49.292;10.572;2022-10-16T00:29:50;2.63;;;1.08;;
65613;SDS011;52283;49.292;10.572;2022-10-16T00:32:17;2.78;;;0.70;;
65613;SDS011;52283;49.292;10.572;2022-10-16T00:34:43;3.03;;;0.75;;
65613;SDS011;52283;49.292;10.572;2022-10-16T00:37:10;1.77;;;1.00;;
65613;SDS011;52283;49.292;10.572;2022-10-16T00:39:38;3.03;;;0.75;;
65613;SDS011;52283;49.292;10.572;2022-10-16T00:42:04;3.30;;;0.80;;
65613;SDS011;52283;49.292;10.572;2022-10-16T00:44:47;3.30;;;0.90;;
65613;SDS011;52283;49.292;10.572;2022-10-16T00:47:18;4.20;;;0.73;;
65613;SDS011;52283;49.292;10.572;2022-10-16T00:49:49;2.13;;;1.00;;
65613;SDS011;52283;49.292;10.572;2022-10-16T00:52:18;1.33;;;1.00;;
65613;SDS011;52283;49.292;10.572;2022-10-16T00:54:47;4.35;;;1.23;;
65613;SDS011;52283;49.292;10.572;2022-10-16T00:57:15;4.10;;;1.33;;
65613;SDS011;52283;49.292;10.572;2022-10-16T00:59:42;2.70;;;0.80;;
65613;SDS011;52283;49.292;10.572;2022-10-16T01:02:11;4.72;;;0.85;;
65613;SDS011;52283;49.292;10.572;2022-10-16T01:04:40;5.53;;;0.93;;
65613;SDS011;52283;49.292;10.572;2022-10-16T01:07:10;1.73;;;1.00;;
65613;SDS011;52283;49.292;10.572;2022-10-16T01:09:43;1.85;;;0.80;;
65613;SDS011;52283;49.292;10.572;2022-10-16T01:12:20;3.25;;;0.90;;
65613;SDS011;52283;49.292;10.572;2022-10-16T01:14:53;2.25;;;0.70;;
65613;SDS011;52283;49.292;10.572;2022-10-16T01:17:23;2.65;;;0.73;;
65613;SDS011;52283;49.292;10.572;2022-10-16T01:19:59;1.38;;;0.60;;
65613;SDS011;52283;49.292;10.572;2022-10-16T01:22:33;9.57;;;0.90;;
65613;SDS011;52283;49.292;10.572;2022-10-16T01:25:16;1.35;;;1.00;;
65613;SDS011;52283;49.292;10.572;2022-10-16T01:27:51;15.27;;;2.08;;
65613;SDS011;52283;49.292;10.572;2022-10-16T01:30:20;2.15;;;0.90;;
65613;SDS011;52283;49.292;10.572;2022-10-16T01:32:53;3.03;;;0.82;;
65613;SDS011;52283;49.292;10.572;2022-10-16T01:35:24;2.03;;;0.80;;
65613;SDS011;52283;49.292;10.572;2022-10-16T01:37:53;6.22;;;0.90;;
65613;SDS011;52283;49.292;10.572;2022-10-16T01:40:25;0.95;;;0.68;;
65613;SDS011;52283;49.292;10.572;2022-10-16T01:42:55;3.47;;;0.90;;
65613;SDS011;52283;49.292;10.572;2022-10-16T01:45:26;0.98;;;0.70;;
65613;SDS011;52283;49.292;10.572;2022-10-16T01:47:56;3.35;;;1.05;;
65613;SDS011;52283;49.292;10.572;2022-10-16T01:50:24;11.30;;;1.10;;
65613;SDS011;52283;49.292;10.572;2022-10-16T01:52:52;3.28;;;1.02;;
65613;SDS011;52283;49.292;10.572;2022-10-16T01:55:22;2.28;;;1.02;;
65613;SDS011;52283;49.292;10.572;2022-10-16T01:57:55;1.83;;;0.88;;
65613;SDS011;52283;49.292;10.572;2022-10-16T02:00:25;3.83;;;1.08;;
65613;SDS011;52283;49.292;10.572;2022-10-16T02:02:53;2.50;;;1.00;;
65613;SDS011;52283;49.292;10.572;2022-10-16T02:05:22;3.90;;;1.42;;
65613;SDS011;52283;49.292;10.572;2022-10-16T02:07:53;5.45;;;1.30;;
65613;SDS011;52283;49.292;10.572;2022-10-16T02:10:19;3.50;;;1.00;;
65613;SDS011;52283;49.292;10.572;2022-10-16T02:12:48;6.07;;;2.28;;
65613;SDS011;52283;49.292;10.572;2022-10-16T02:15:22;6.88;;;1.10;;
65613;SDS011;52283;49.292;10.572;2022-10-16T02:17:49;1.60;;;1.10;;
65613;SDS011;52283;49.292;10.572;2022-10-16T02:20:15;6.28;;;1.10;;
65613;SDS011;52283;49.292;10.572;2022-10-16T02:22:43;2.72;;;1.30;;
65613;SDS011;52283;49.292;10.572;2022-10-16T02:25:15;5.50;;;0.90;;
65613;SDS011;52283;49.292;10.572;2022-10-16T02:27:49;9.80;;;2.45;;
65613;SDS011;52283;49.292;10.572;2022-10-16T02:30:24;3.65;;;1.27;;
65613;SDS011;52283;49.292;10.572;2022-10-16T02:32:55;1.40;;;1.02;;
65613;SDS011;52283;49.292;10.572;2022-10-16T02:35:24;2.95;;;1.08;;
65613;SDS011;52283;49.292;10.572;2022-10-16T02:37:52;1.15;;;0.90;;
65613;SDS011;52283;49.292;10.572;2022-10-16T02:40:20;5.45;;;1.00;;
65613;SDS011;52283;49.292;10.572;2022-10-16T02:42:49;1.88;;;1.20;;
65613;SDS011;52283;49.292;10.572;2022-10-16T02:45:17;6.75;;;1.20;;
65613;SDS011;52283;49.292;10.572;2022-10-16T02:47:45;4.55;;;1.25;;
65613;SDS011;52283;49.292;10.572;2022-10-16T02:50:12;3.55;;;1.45;;
65613;SDS011;52283;49.292;10.572;2022-10-16T02:52:38;6.40;;;1.48;;
65613;SDS011;52283;49.292;10.572;2022-10-16T02:55:05;5.20;;;1.30;;
65613;SDS011;52283;49.292;10.572;2022-10-16T02:57:32;5.78;;;1.20;;
65613;SDS011;52283;49.292;10.572;2022-10-16T02:59:59;4.43;;;1.10;;
65613;SDS011;52283;49.292;10.572;2022-10-16T03:02:25;5.13;;;1.30;;
65613;SDS011;52283;49.292;10.572;2022-10-16T03:04:53;3.20;;;1.30;;
65613;SDS011;52283;49.292;10.572;2022-10-16T03:07:19;4.35;;;1.05;;
65613;SDS011;52283;49.292;10.572;2022-10-16T03:09:46;5.32;;;1.25;;
65613;SDS011;52283;49.292;10.572;2022-10-16T03:12:12;4.43;;;1.20;;
65613;SDS011;52283;49.292;10.572;2022-10-16T03:14:38;1.63;;;1.20;;
65613;SDS011;52283;49.292;10.572;2022-10-16T03:17:05;3.28;;;0.98;;
65613;SDS011;52283;49.292;10.572;2022-10-16T03:19:32;1.40;;;1.02;;
65613;SDS011;52283;49.292;10.572;2022-10-16T03:22:01;2.65;;;1.17;;
65613;SDS011;52283;49.292;10.572;2022-10-16T03:24:27;17.95;;;2.15;;
65613;SDS011;52283;49.292;10.572;2022-10-16T03:26:54;3.30;;;1.05;;
65613;SDS011;52283;49.292;10.572;2022-10-16T03:29:20;4.85;;;1.30;;
65613;SDS011;52283;49.292;10.572;2022-10-16T03:31:46;16.55;;;1.67;;
65613;SDS011;52283;49.292;10.572;2022-10-16T03:34:14;1.30;;;1.10;;
65613;SDS011;52283;49.292;10.572;2022-10-16T03:36:40;7.95;;;1.65;;
65613;SDS011;52283;49.292;10.572;2022-10-16T03:39:08;2.25;;;1.10;;
65613;SDS011;52283;49.292;10.572;2022-10-16T03:41:35;2.17;;;1.10;;
65613;SDS011;52283;49.292;10.572;2022-10-16T03:44:01;6.68;;;1.27;;
65613;SDS011;52283;49.292;10.572;2022-10-16T03:46:28;4.38;;;1.23;;
65613;SDS011;52283;49.292;10.572;2022-10-16T03:48:54;3.35;;;0.98;;
65613;SDS011;52283;49.292;10.572;2022-10-16T03:51:21;1.67;;;0.90;;
65613;SDS011;52283;49.292;10.572;2022-10-16T03:53:47;2.60;;;1.35;;
65613;SDS011;52283;49.292;10.572;2022-10-16T03:56:15;4.03;;;1.13;;
65613;SDS011;52283;49.292;10.572;2022-10-16T03:58:42;8.35;;;1.05;;
65613;SDS011;52283;49.292;10.572;2022-10-16T04:01:08;4.65;;;1.30;;
65613;SDS011;52283;49.292;10.572;2022-10-16T04:03:34;1.05;;;0.95;;
65613;SDS011;52283;49.292;10.572;2022-10-16T04:06:01;2.60;;;0.88;;
65613;SDS011;52283;49.292;10.572;2022-10-16T04:08:27;1.35;;;1.02;;
65613;SDS011;52283;49.292;10.572;2022-10-16T04:10:54;1.92;;;0.90;;
65613;SDS011;52283;49.292;10.572;2022-10-16T04:13:22;5.93;;;1.27;;
65613;SDS011;52283;49.292;10.572;2022-10-16T04:15:48;2.40;;;1.00;;
65613;SDS011;52283;49.292;10.572;2022-10-16T04:18:15;2.40;;;1.20;;
65613;SDS011;52283;49.292;10.572;2022-10-16T04:20:41;1.98;;;1.15;;
65613;SDS011;52283;49.292;10.572;2022-10-16T04:23:07;1.42;;;0.95;;
65613;SDS011;52283;49.292;10.572;2022-10-16T04:25:34;7.47;;;1.27;;
65613;SDS011;52283;49.292;10.572;2022-10-16T04:28:00;2.13;;;1.20;;
65613;SDS011;52283;49.292;10.572;2022-10-16T04:30:28;4.53;;;1.35;;
65613;SDS011;52283;49.292;10.572;2022-10-16T04:32:55;2.65;;;1.55;;
65613;SDS011;52283;49.292;10.572;2022-10-16T04:35:21;2.60;;;1.30;;
65613;SDS011;52283;49.292;10.572;2022-10-16T04:37:48;2.53;;;1.25;;
65613;SDS011;52283;49.292;10.572;2022-10-16T04:40:15;5.43;;;1.40;;
65613;SDS011;52283;49.292;10.572;2022-10-16T04:42:42;5.97;;;1.55;;
65613;SDS011;52283;49.292;10.572;2022-10-16T04:45:09;4.22;;;1.30;;
65613;SDS011;52283;49.292;10.572;2022-10-16T04:47:37;2.58;;;1.25;;
65613;SDS011;52283;49.292;10.572;2022-10-16T04:50:04;3.33;;;1.20;;
65613;SDS011;52283;49.292;10.572;2022-10-16T04:52:31;3.42;;;1.38;;
65613;SDS011;52283;49.292;10.572;2022-10-16T04:54:58;4.40;;;1.50;;
65613;SDS011;52283;49.292;10.572;2022-10-16T04:57:27;2.25;;;1.30;;
65613;SDS011;52283;49.292;10.572;2022-10-16T04:59:53;4.88;;;1.35;;
65613;SDS011;52283;49.292;10.572;2022-10-16T05:02:20;4.65;;;1.50;;
65613;SDS011;52283;49.292;10.572;2022-10-16T05:04:48;1.55;;;1.45;;
65613;SDS011;52283;49.292;10.572;2022-10-16T05:07:14;1.75;;;1.45;;
65613;SDS011;52283;49.292;10.572;2022-10-16T05:09:40;4.18;;;2.05;;
65613;SDS011;52283;49.292;10.572;2022-10-16T05:12:07;3.13;;;1.77;;
65613;SDS011;52283;49.292;10.572;2022-10-16T05:14:33;4.57;;;2.08;;
65613;SDS011;52283;49.292;10.572;2022-10-16T05:17:00;2.45;;;1.40;;
65613;SDS011;52283;49.292;10.572;2022-10-16T05:19:26;4.55;;;1.67;;
65613;SDS011;52283;49.292;10.572;2022-10-16T05:21:54;1.98;;;1.70;;
65613;SDS011;52283;49.292;10.572;2022-10-16T05:24:21;3.60;;;2.03;;
65613;SDS011;52283;49.292;10.572;2022-10-16T05:26:47;4.15;;;1.80;;
65613;SDS011;52283;49.292;10.572;2022-10-16T05:29:14;4.45;;;2.20;;
65613;SDS011;52283;49.292;10.572;2022-10-16T05:31:40;4.25;;;2.33;;
65613;SDS011;52283;49.292;10.572;2022-10-16T05:34:07;3.38;;;1.75;;
65613;SDS011;52283;49.292;10.572;2022-10-16T05:36:33;3.70;;;1.90;;
65613;SDS011;52283;49.292;10.572;2022-10-16T05:39:01;8.85;;;2.03;;
65613;SDS011;52283;49.292;10.572;2022-10-16T05:41:28;5.20;;;1.92;;
65613;SDS011;52283;49.292;10.572;2022-10-16T05:43:55;1.63;;;1.30;;
65613;SDS011;52283;49.292;10.572;2022-10-16T05:46:21;8.80;;;1.70;;
65613;SDS011;52283;49.292;10.572;2022-10-16T05:48:48;4.88;;;1.52;;
65613;SDS011;52283;49.292;10.572;2022-10-16T05:51:14;2.22;;;1.75;;
65613;SDS011;52283;49.292;10.572;2022-10-16T05:53:41;4.78;;;1.65;;
65613;SDS011;52283;49.292;10.572;2022-10-16T05:56:10;4.13;;;2.30;;
65613;SDS011;52283;49.292;10.572;2022-10-16T05:58:37;3.75;;;1.48;;
65613;SDS011;52283;49.292;10.572;2022-10-16T06:01:06;4.90;;;1.70;;
65613;SDS011;52283;49.292;10.572;2022-10-16T06:03:33;2.95;;;1.90;;
65613;SDS011;52283;49.292;10.572;2022-10-16T06:06:06;2.45;;;1.42;;
65613;SDS011;52283;49.292;10.572;2022-10-16T06:08:33;3.60;;;1.77;;
65613;SDS011;52283;49.292;10.572;2022-10-16T06:11:00;5.28;;;1.70;;
65613;SDS011;52283;49.292;10.572;2022-10-16T06:13:29;2.10;;;1.70;;
65613;SDS011;52283;49.292;10.572;2022-10-16T06:15:56;3.10;;;1.65;;
65613;SDS011;52283;49.292;10.572;2022-10-16T06:18:24;2.50;;;2.05;;
65613;SDS011;52283;49.292;10.572;2022-10-16T06:20:51;3.30;;;1.73;;
65613;SDS011;52283;49.292;10.572;2022-10-16T06:23:17;3.08;;;1.90;;
65613;SDS011;52283;49.292;10.572;2022-10-16T06:25:44;9.23;;;2.50;;
65613;SDS011;52283;49.292;10.572;2022-10-16T06:28:10;2.05;;;1.85;;
65613;SDS011;52283;49.292;10.572;2022-10-16T06:30:38;5.00;;;2.10;;
65613;SDS011;52283;49.292;10.572;2022-10-16T06:33:04;3.33;;;1.75;;
65613;SDS011;52283;49.292;10.572;2022-10-16T06:35:31;2.85;;;1.90;;
65613;SDS011;52283;49.292;10.572;2022-10-16T06:37:57;3.45;;;1.65;;
65613;SDS011;52283;49.292;10.572;2022-10-16T06:40:24;4.30;;;1.80;;
65613;SDS011;52283;49.292;10.572;2022-10-16T06:42:50;4.32;;;2.08;;
65613;SDS011;52283;49.292;10.572;2022-10-16T06:45:17;3.72;;;1.73;;
65613;SDS011;52283;49.292;10.572;2022-10-16T06:47:45;4.05;;;1.77;;
65613;SDS011;52283;49.292;10.572;2022-10-16T06:50:11;4.05;;;1.63;;
65613;SDS011;52283;49.292;10.572;2022-10-16T06:52:38;5.13;;;1.70;;
65613;SDS011;52283;49.292;10.572;2022-10-16T06:55:05;1.77;;;1.60;;
65613;SDS011;52283;49.292;10.572;2022-10-16T06:57:32;2.25;;;1.70;;
65613;SDS011;52283;49.292;10.572;2022-10-16T06:59:58;4.28;;;1.45;;
65613;SDS011;52283;49.292;10.572;2022-10-16T07:02:25;2.97;;;1.20;;
65613;SDS011;52283;49.292;10.572;2022-10-16T07:04:52;2.38;;;1.52;;
65613;SDS011;52283;49.292;10.572;2022-10-16T07:07:19;5.32;;;1.35;;
65613;SDS011;52283;49.292;10.572;2022-10-16T07:09:45;2.60;;;1.48;;
65613;SDS011;52283;49.292;10.572;2022-10-16T07:12:12;4.32;;;1.23;;
65613;SDS011;52283;49.292;10.572;2022-10-16T07:14:38;2.00;;;1.10;;
65613;SDS011;52283;49.292;10.572;2022-10-16T07:17:05;2.17;;;1.45;;
65613;SDS011;52283;49.292;10.572;2022-10-16T07:19:31;10.32;;;2.03;;
65613;SDS011;52283;49.292;10.572;2022-10-16T07:21:59;4.88;;;1.17;;
65613;SDS011;52283;49.292;10.572;2022-10-16T07:24:25;3.03;;;1.42;;
65613;SDS011;52283;49.292;10.572;2022-10-16T07:26:52;6.53;;;2.00;;
65613;SDS011;52283;49.292;10.572;2022-10-16T07:29:19;3.47;;;2.33;;
65613;SDS011;52283;49.292;10.572;2022-10-16T07:31:46;4.43;;;2.10;;
65613;SDS011;52283;49.292;10.572;2022-10-16T07:34:14;21.65;;;2.70;;
65613;SDS011;52283;49.292;10.572;2022-10-16T07:36:42;5.00;;;1.70;;
65613;SDS011;52283;49.292;10.572;2022-10-16T07:39:09;1.98;;;1.30;;
65613;SDS011;52283;49.292;10.572;2022-10-16T07:41:36;4.35;;;1.40;;
65613;SDS011;52283;49.292;10.572;2022-10-16T07:44:03;4.95;;;1.30;;
65613;SDS011;52283;49.292;10.572;2022-10-16T07:46:31;2.10;;;1.58;;
65613;SDS011;52283;49.292;10.572;2022-10-16T07:48:58;2.05;;;1.25;;
65613;SDS011;52283;49.292;10.572;2022-10-16T07:51:25;3.92;;;1.75;;
65613;SDS011;52283;49.292;10.572;2022-10-16T07:53:52;2.85;;;1.30;;
65613;SDS011;52283;49.292;10.572;2022-10-16T07:56:20;8.50;;;1.75;;
65613;SDS011;52283;49.292;10.572;2022-10-16T07:58:47;1.60;;;1.00;;
65613;SDS011;52283;49.292;10.572;2022-10-16T08:01:15;2.63;;;1.15;;
65613;SDS011;52283;49.292;10.572;2022-10-16T08:03:43;1.92;;;1.33;;
65613;SDS011;52283;49.292;10.572;2022-10-16T08:06:10;6.95;;;1.75;;
65613;SDS011;52283;49.292;10.572;2022-10-16T08:08:36;1.90;;;0.90;;
65613;SDS011;52283;49.292;10.572;2022-10-16T08:11:03;4.20;;;1.45;;
65613;SDS011;52283;49.292;10.572;2022-10-16T08:13:31;4.03;;;1.17;;
65613;SDS011;52283;49.292;10.572;2022-10-16T08:15:58;3.03;;;1.10;;
65613;SDS011;52283;49.292;10.572;2022-10-16T08:18:24;4.35;;;1.10;;
65613;SDS011;52283;49.292;10.572;2022-10-16T08:20:55;1.67;;;1.15;;
65613;SDS011;52283;49.292;10.572;2022-10-16T08:23:22;3.08;;;1.13;;
65613;SDS011;52283;49.292;10.572;2022-10-16T08:25:50;2.17;;;1.15;;
65613;SDS011;52283;49.292;10.572;2022-10-16T08:28:17;3.47;;;1.33;;
65613;SDS011;52283;49.292;10.572;2022-10-16T08:30:45;3.15;;;1.17;;
65613;SDS011;52283;49.292;10.572;2022-10-16T08:33:11;3.08;;;1.05;;
65613;SDS011;52283;49.292;10.572;2022-10-16T08:35:38;1.58;;;1.20;;
65613;SDS011;52283;49.292;10.572;2022-10-16T08:38:05;2.90;;;1.40;;
65613;SDS011;52283;49.292;10.572;2022-10-16T08:40:32;3.20;;;1.30;;
65613;SDS011;52283;49.292;10.572;2022-10-16T08:43:08;1.52;;;1.20;;
65613;SDS011;52283;49.292;10.572;2022-10-16T08:45:55;3.13;;;1.58;;
65613;SDS011;52283;49.292;10.572;2022-10-16T08:48:35;1.50;;;0.93;;
65613;SDS011;52283;49.292;10.572;2022-10-16T08:51:07;1.15;;;0.90;;
65613;SDS011;52283;49.292;10.572;2022-10-16T08:53:38;1.17;;;1.03;;
65613;SDS011;52283;49.292;10.572;2022-10-16T08:56:09;3.83;;;1.00;;
65613;SDS011;52283;49.292;10.572;2022-10-16T08:58:35;4.57;;;1.10;;
65613;SDS011;52283;49.292;10.572;2022-10-16T09:01:03;7.53;;;1.58;;
65613;SDS011;52283;49.292;10.572;2022-10-16T09:03:40;4.03;;;1.05;;
65613;SDS011;52283;49.292;10.572;2022-10-16T09:06:25;3.33;;;1.30;;
65613;SDS011;52283;49.292;10.572;2022-10-16T09:09:09;1.80;;;1.55;;
65613;SDS011;52283;49.292;10.572;2022-10-16T09:11:45;4.95;;;1.27;;
65613;SDS011;52283;49.292;10.572;2022-10-16T09:14:22;6.38;;;2.63;;
65613;SDS011;52283;49.292;10.572;2022-10-16T09:17:06;2.45;;;1.40;;
65613;SDS011;52283;49.292;10.572;2022-10-16T09:19:51;1.63;;;1.38;;
65613;SDS011;52283;49.292;10.572;2022-10-16T09:22:21;2.30;;;1.13;;
65613;SDS011;52283;49.292;10.572;2022-10-16T09:24:53;2.00;;;1.60;;
65613;SDS011;52283;49.292;10.572;2022-10-16T09:27:20;3.95;;;1.55;;
65613;SDS011;52283;49.292;10.572;2022-10-16T09:29:47;1.35;;;1.00;;
65613;SDS011;52283;49.292;10.572;2022-10-16T09:32:15;2.22;;;1.30;;
65613;SDS011;52283;49.292;10.572;2022-10-16T09:34:45;3.25;;;1.50;;
65613;SDS011;52283;49.292;10.572;2022-10-16T09:37:14;1.40;;;0.93;;
65613;SDS011;52283;49.292;10.572;2022-10-16T09:39:44;2.53;;;1.00;;
65613;SDS011;52283;49.292;10.572;2022-10-16T09:42:13;1.58;;;1.05;;
65613;SDS011;52283;49.292;10.572;2022-10-16T09:44:42;1.77;;;1.23;;
65613;SDS011;52283;49.292;10.572;2022-10-16T09:47:15;4.03;;;1.35;;
65613;SDS011;52283;49.292;10.572;2022-10-16T09:49:50;2.17;;;1.17;;
65613;SDS011;52283;49.292;10.572;2022-10-16T09:52:18;1.38;;;1.10;;
65613;SDS011;52283;49.292;10.572;2022-10-16T09:54:49;2.47;;;1.38;;
65613;SDS011;52283;49.292;10.572;2022-10-16T09:57:17;5.45;;;1.05;;
65613;SDS011;52283;49.292;10.572;2022-10-16T09:59:46;1.75;;;0.93;;
65613;SDS011;52283;49.292;10.572;2022-10-16T10:02:16;3.08;;;1.25;;
65613;SDS011;52283;49.292;10.572;2022-10-16T10:04:47;2.70;;;0.80;;
65613;SDS011;52283;49.292;10.572;2022-10-16T10:07:17;2.35;;;0.95;;
65613;SDS011;52283;49.292;10.572;2022-10-16T10:09:46;5.33;;;1.00;;
65613;SDS011;52283;49.292;10.572;2022-10-16T10:12:20;3.13;;;0.90;;
65613;SDS011;52283;49.292;10.572;2022-10-16T10:14:48;2.42;;;0.88;;
65613;SDS011;52283;49.292;10.572;2022-10-16T10:17:18;3.15;;;0.90;;
65613;SDS011;52283;49.292;10.572;2022-10-16T10:19:47;1.30;;;1.17;;
65613;SDS011;52283;49.292;10.572;2022-10-16T10:22:19;1.27;;;0.93;;
65613;SDS011;52283;49.292;10.572;2022-10-16T10:27:44;3.03;;;0.70;;
65613;SDS011;52283;49.292;10.572;2022-10-16T10:30:23;3.83;;;1.23;;
65613;SDS011;52283;49.292;10.572;2022-10-16T10:32:56;1.60;;;1.05;;
65613;SDS011;52283;49.292;10.572;2022-10-16T10:35:44;2.65;;;0.90;;
65613;SDS011;52283;49.292;10.572;2022-10-16T10:38:19;2.78;;;0.98;;
65613;SDS011;52283;49.292;10.572;2022-10-16T10:40:56;2.78;;;1.17;;
65613;SDS011;52283;49.292;10.572;2022-10-16T10:43:39;4.63;;;0.70;;
65613;SDS011;52283;49.292;10.572;2022-10-16T10:46:17;4.47;;;0.90;;
65613;SDS011;52283;49.292;10.572;2022-10-16T10:48:54;4.70;;;0.80;;
65613;SDS011;52283;49.292;10.572;2022-10-16T10:51:30;2.55;;;0.98;;
65613;SDS011;52283;49.292;10.572;2022-10-16T10:54:07;3.65;;;0.95;;
65613;SDS011;52283;49.292;10.572;2022-10-16T10:56:42;1.38;;;0.80;;
65613;SDS011;52283;49.292;10.572;2022-10-16T11:02:10;2.63;;;0.80;;
65613;SDS011;52283;49.292;10.572;2022-10-16T11:04:52;1.85;;;0.80;;
65613;SDS011;52283;49.292;10.572;2022-10-16T11:07:36;1.63;;;0.93;;
65613;SDS011;52283;49.292;10.572;2022-10-16T11:10:09;8.50;;;1.33;;
65613;SDS011;52283;49.292;10.572;2022-10-16T11:12:42;3.17;;;1.42;;
65613;SDS011;52283;49.292;10.572;2022-10-16T11:15:12;2.45;;;0.98;;
65613;SDS011;52283;49.292;10.572;2022-10-16T11:17:44;3.42;;;0.80;;
65613;SDS011;52283;49.292;10.572;2022-10-16T11:20:16;2.40;;;0.70;;
65613;SDS011;52283;49.292;10.572;2022-10-16T11:22:47;1.40;;;0.80;;
65613;SDS011;52283;49.292;10.572;2022-10-16T11:25:18;1.63;;;0.80;;
65613;SDS011;52283;49.292;10.572;2022-10-16T11:27:49;1.77;;;0.70;;
65613;SDS011;52283;49.292;10.572;2022-10-16T11:30:20;2.88;;;0.70;;
65613;SDS011;52283;49.292;10.572;2022-10-16T11:32:56;1.88;;;0.68;;
65613;SDS011;52283;49.292;10.572;2022-10-16T11:35:34;2.00;;;0.68;;
65613;SDS011;52283;49.292;10.572;2022-10-16T11:40:39;2.78;;;0.90;;
65613;SDS011;52283;49.292;10.572;2022-10-16T11:43:10;2.55;;;1.30;;
65613;SDS011;52283;49.292;10.572;2022-10-16T11:45:42;2.03;;;0.80;;
65613;SDS011;52283;49.292;10.572;2022-10-16T11:48:14;0.90;;;0.70;;
65613;SDS011;52283;49.292;10.572;2022-10-16T11:50:48;1.45;;;1.35;;
65613;SDS011;52283;49.292;10.572;2022-10-16T11:53:21;2.40;;;1.00;;
65613;SDS011;52283;49.292;10.572;2022-10-16T11:55:54;3.13;;;0.75;;
65613;SDS011;52283;49.292;10.572;2022-10-16T11:58:22;3.92;;;0.70;;
65613;SDS011;52283;49.292;10.572;2022-10-16T12:00:56;1.60;;;0.70;;
65613;SDS011;52283;49.292;10.572;2022-10-16T12:03:31;1.45;;;0.90;;
65613;SDS011;52283;49.292;10.572;2022-10-16T12:06:13;4.30;;;0.60;;
65613;SDS011;52283;49.292;10.572;2022-10-16T12:08:49;4.03;;;0.60;;
65613;SDS011;52283;49.292;10.572;2022-10-16T12:11:22;2.97;;;0.90;;
65613;SDS011;52283;49.292;10.572;2022-10-16T12:13:50;1.15;;;0.80;;
65613;SDS011;52283;49.292;10.572;2022-10-16T12:16:21;1.50;;;0.52;;
65613;SDS011;52283;49.292;10.572;2022-10-16T12:18:49;4.05;;;0.90;;
65613;SDS011;52283;49.292;10.572;2022-10-16T12:21:37;1.55;;;0.68;;
65613;SDS011;52283;49.292;10.572;2022-10-16T12:24:03;3.15;;;0.80;;
65613;SDS011;52283;49.292;10.572;2022-10-16T12:26:32;3.17;;;1.67;;
65613;SDS011;52283;49.292;10.572;2022-10-16T12:29:11;1.67;;;0.70;;
65613;SDS011;52283;49.292;10.572;2022-10-16T12:31:43;2.63;;;0.80;;
65613;SDS011;52283;49.292;10.572;2022-10-16T12:34:14;1.05;;;0.70;;
65613;SDS011;52283;49.292;10.572;2022-10-16T12:36:49;1.63;;;0.60;;
65613;SDS011;52283;49.292;10.572;2022-10-16T12:39:20;2.25;;;0.68;;
65613;SDS011;52283;49.292;10.572;2022-10-16T12:41:59;1.67;;;0.60;;
65613;SDS011;52283;49.292;10.572;2022-10-16T12:44:31;1.88;;;0.60;;
65613;SDS011;52283;49.292;10.572;2022-10-16T12:47:00;1.27;;;0.73;;
65613;SDS011;52283;49.292;10.572;2022-10-16T12:49:31;0.70;;;0.70;;
65613;SDS011;52283;49.292;10.572;2022-10-16T12:52:03;2.15;;;0.77;;
65613;SDS011;52283;49.292;10.572;2022-10-16T12:54:30;1.95;;;0.82;;
65613;SDS011;52283;49.292;10.572;2022-10-16T12:57:04;6.03;;;0.80;;
65613;SDS011;52283;49.292;10.572;2022-10-16T12:59:44;2.50;;;0.70;;
65613;SDS011;52283;49.292;10.572;2022-10-16T13:05:38;2.83;;;0.70;;
65613;SDS011;52283;49.292;10.572;2022-10-16T13:08:17;0.70;;;0.60;;
65613;SDS011;52283;49.292;10.572;2022-10-16T13:10:58;3.05;;;0.80;;
65613;SDS011;52283;49.292;10.572;2022-10-16T13:13:35;0.90;;;0.63;;
65613;SDS011;52283;49.292;10.572;2022-10-16T13:16:12;2.95;;;0.85;;
65613;SDS011;52283;49.292;10.572;2022-10-16T13:18:56;1.60;;;0.90;;
65613;SDS011;52283;49.292;10.572;2022-10-16T13:21:34;0.70;;;0.55;;
65613;SDS011;52283;49.292;10.572;2022-10-16T13:24:16;4.03;;;0.77;;
65613;SDS011;52283;49.292;10.572;2022-10-16T13:26:52;1.33;;;0.67;;
65613;SDS011;52283;49.292;10.572;2022-10-16T13:29:22;2.90;;;0.73;;
65613;SDS011;52283;49.292;10.572;2022-10-16T13:31:49;2.55;;;0.73;;
65613;SDS011;52283;49.292;10.572;2022-10-16T13:34:16;2.78;;;0.55;;
65613;SDS011;52283;49.292;10.572;2022-10-16T13:36:45;3.58;;;0.70;;
65613;SDS011;52283;49.292;10.572;2022-10-16T13:39:21;2.53;;;0.70;;
65613;SDS011;52283;49.292;10.572;2022-10-16T13:42:00;1.17;;;0.60;;
65613;SDS011;52283;49.292;10.572;2022-10-16T13:44:29;1.98;;;1.10;;
65613;SDS011;52283;49.292;10.572;2022-10-16T13:47:02;4.13;;;1.48;;
65613;SDS011;52283;49.292;10.572;2022-10-16T13:49:29;3.50;;;0.80;;
65613;SDS011;52283;49.292;10.572;2022-10-16T13:51:55;0.93;;;0.77;;
65613;SDS011;52283;49.292;10.572;2022-10-16T13:54:26;2.17;;;0.60;;
65613;SDS011;52283;49.292;10.572;2022-10-16T13:56:54;1.35;;;0.75;;
65613;SDS011;52283;49.292;10.572;2022-10-16T13:59:23;0.75;;;0.55;;
65613;SDS011;52283;49.292;10.572;2022-10-16T14:01:51;5.72;;;0.80;;
65613;SDS011;52283;49.292;10.572;2022-10-16T14:04:19;0.63;;;0.63;;
65613;SDS011;52283;49.292;10.572;2022-10-16T14:06:49;1.77;;;0.77;;
65613;SDS011;52283;49.292;10.572;2022-10-16T14:09:20;3.60;;;0.60;;
65613;SDS011;52283;49.292;10.572;2022-10-16T14:11:51;0.80;;;0.52;;
65613;SDS011;52283;49.292;10.572;2022-10-16T14:14:21;6.15;;;0.93;;
65613;SDS011;52283;49.292;10.572;2022-10-16T14:16:49;2.33;;;0.60;;
65613;SDS011;52283;49.292;10.572;2022-10-16T14:19:18;1.70;;;0.73;;
65613;SDS011;52283;49.292;10.572;2022-10-16T14:21:47;2.45;;;0.70;;
65613;SDS011;52283;49.292;10.572;2022-10-16T14:26:58;1.00;;;1.00;;
65613;SDS011;52283;49.292;10.572;2022-10-16T14:29:26;2.08;;;0.75;;
65613;SDS011;52283;49.292;10.572;2022-10-16T14:31:54;0.60;;;0.60;;
65613;SDS011;52283;49.292;10.572;2022-10-16T14:34:23;1.15;;;0.50;;
65613;SDS011;52283;49.292;10.572;2022-10-16T14:36:52;1.23;;;0.60;;
65613;SDS011;52283;49.292;10.572;2022-10-16T14:39:19;1.77;;;0.50;;
65613;SDS011;52283;49.292;10.572;2022-10-16T14:41:48;4.63;;;0.63;;
65613;SDS011;52283;49.292;10.572;2022-10-16T14:44:18;1.42;;;0.80;;
65613;SDS011;52283;49.292;10.572;2022-10-16T14:46:48;3.80;;;0.70;;
65613;SDS011;52283;49.292;10.572;2022-10-16T14:49:15;3.92;;;0.70;;
65613;SDS011;52283;49.292;10.572;2022-10-16T14:51:45;3.43;;;0.63;;
65613;SDS011;52283;49.292;10.572;2022-10-16T14:54:12;5.15;;;0.95;;
65613;SDS011;52283;49.292;10.572;2022-10-16T14:56:44;0.77;;;0.60;;
65613;SDS011;52283;49.292;10.572;2022-10-16T14:59:14;3.58;;;1.30;;
65613;SDS011;52283;49.292;10.572;2022-10-16T15:01:45;11.73;;;1.42;;